Time;durP1;ratioP1;P1;durP2;ratioP2;P2;SDS_P1;SDS_P2;PMS_P1;PMS_P2;Temp;Humidity;BMP_temperature;BMP_pressure;BME280_temperature;BME280_humidity;BME280_pressure;Samples;Min_cycle;Max_cycle;Signal;HPM_P1;HPM_P2
2023/03/21 00:00:30;;;;;;;18.10;16.40;;;11.10;91.00;;;13.80;63.89;101514.84;5115798;28;20245;-57
2023/03/21 00:02:57;;;;;;;20.20;18.03;;;11.10;91.00;;;13.87;63.78;101512.31;5115132;28;20390;-55
2023/03/21 00:05:24;;;;;;;19.50;17.63;;;11.10;91.10;;;13.88;63.69;101516.63;5115731;28;20648;-54
2023/03/21 00:07:51;;;;;;;17.57;15.73;;;11.20;91.10;;;13.90;63.46;101519.91;5122860;27;20202;-54
2023/03/21 00:10:18;;;;;;;19.33;17.33;;;11.20;91.10;;;13.88;63.62;101516.63;5127931;27;20195;-54
2023/03/21 00:13:05;;;;;;;20.33;18.33;;;11.20;91.00;;;13.84;63.58;101510.84;5115516;27;20246;-56
2023/03/21 00:15:37;;;;;;;19.23;17.40;;;11.20;90.90;;;13.86;63.82;101508.03;5115477;28;20231;-57
2023/03/21 00:18:24;;;;;;;16.90;15.27;;;11.20;90.90;;;13.92;63.38;101499.38;5116061;28;20188;-57
2023/03/21 00:20:59;;;;;;;20.13;18.07;;;11.20;90.90;;;13.89;63.51;101497.06;5115823;28;20635;-55
2023/03/21 00:23:46;;;;;;;19.10;17.00;;;11.30;90.90;;;13.91;63.39;101495.91;5115417;28;20207;-55
2023/03/21 00:26:16;;;;;;;18.27;16.37;;;11.20;90.90;;;13.90;63.48;101499.56;5115878;28;20245;-56
2023/03/21 00:28:43;;;;;;;18.00;16.13;;;11.30;90.90;;;13.90;63.77;101498.72;5115328;28;20192;-55
2023/03/21 00:31:11;;;;;;;18.27;16.47;;;11.30;90.90;;;13.93;63.65;101493.09;5115476;28;20200;-55
2023/03/21 00:33:38;;;;;;;18.27;16.57;;;11.20;90.90;;;13.90;63.70;101493.44;5115152;28;20215;-56
2023/03/21 00:36:08;;;;;;;15.67;14.07;;;11.20;90.90;;;13.95;63.42;101491.88;5115058;28;20640;-57
2023/03/21 00:38:36;;;;;;;16.40;14.70;;;11.30;90.90;;;14.02;63.40;101486.72;5115685;28;20188;-56
2023/03/21 00:41:05;;;;;;;16.60;14.93;;;11.20;90.90;;;14.07;63.23;101484.38;5115408;28;20183;-56
2023/03/21 00:43:50;;;;;;;17.63;15.83;;;11.30;90.90;;;14.02;63.27;101487.56;5115336;28;20203;-55
2023/03/21 00:46:19;;;;;;;17.00;15.40;;;11.30;90.90;;;13.95;63.62;101480.50;5115241;28;20188;-56
2023/03/21 00:48:49;;;;;;;17.03;15.33;;;11.40;90.90;;;13.87;63.94;101478.75;5114326;28;20659;-54
2023/03/21 00:51:25;;;;;;;15.50;13.90;;;11.30;90.80;;;13.91;63.85;101476.53;5114832;28;20223;-56
2023/03/21 00:53:54;;;;;;;15.90;14.37;;;11.30;90.80;;;13.97;63.59;101475.84;5114379;28;20215;-57
2023/03/21 00:56:22;;;;;;;18.03;16.23;;;11.30;90.90;;;13.93;63.78;101472.72;5115192;28;20188;-57
2023/03/21 00:58:50;;;;;;;17.03;15.53;;;11.30;90.90;;;13.93;63.75;101466.63;5114796;28;20203;-58
2023/03/21 01:01:18;;;;;;;18.17;16.37;;;11.30;90.90;;;13.92;63.81;101464.97;5115155;28;20217;-57
2023/03/21 01:03:49;;;;;;;14.57;13.23;;;11.30;90.90;;;13.95;63.74;101464.63;5114149;28;20216;-53
2023/03/21 01:06:18;;;;;;;17.33;15.73;;;11.30;90.80;;;13.96;63.54;101458.31;5115031;28;20196;-56
2023/03/21 01:08:47;;;;;;;16.80;15.30;;;11.30;91.00;;;13.93;63.79;101456.03;5125939;27;20262;-56
2023/03/21 01:11:22;;;;;;;14.87;13.47;;;11.30;91.00;;;13.99;63.47;101450.84;5114190;28;20202;-56
2023/03/21 01:13:50;;;;;;;16.20;14.60;;;11.30;90.90;;;14.04;63.49;101455.59;5114215;28;20223;-56
2023/03/21 01:16:35;;;;;;;16.60;15.10;;;11.40;91.00;;;14.02;63.45;101449.66;5113805;28;20206;-57
2023/03/21 01:19:06;;;;;;;16.40;14.87;;;11.30;90.90;;;13.97;63.58;101444.09;5114545;28;20196;-55
2023/03/21 01:21:41;;;;;;;17.43;15.83;;;11.30;90.80;;;13.91;63.86;101450.91;5114356;28;20198;-58
2023/03/21 01:24:09;;;;;;;16.23;14.57;;;11.30;91.00;;;13.89;63.75;101444.16;5113902;28;20208;-55
2023/03/21 01:26:36;;;;;;;16.07;14.47;;;11.30;90.80;;;13.91;63.89;101442.13;5113877;28;20199;-56
2023/03/21 01:29:04;;;;;;;17.73;15.93;;;11.30;91.00;;;13.91;63.95;101442.13;5114078;28;20192;-54
2023/03/21 01:31:31;;;;;;;15.50;14.07;;;11.30;91.10;;;13.93;64.02;101435.66;5114088;28;20192;-55
2023/03/21 01:33:59;;;;;;;15.73;14.23;;;11.30;91.10;;;13.96;63.95;101437.13;5113359;28;20216;-54
2023/03/21 01:36:27;;;;;;;16.77;15.20;;;11.30;91.10;;;13.96;63.78;101440.59;5114527;28;20195;-55
2023/03/21 01:38:54;;;;;;;16.43;14.83;;;11.30;91.10;;;14.00;63.94;101447.19;5114410;28;20188;-54
2023/03/21 01:41:27;;;;;;;17.27;15.70;;;11.30;91.10;;;14.01;63.71;101437.44;5113138;28;20195;-54
2023/03/21 01:44:15;;;;;;;14.70;13.10;;;11.30;91.20;;;13.99;63.62;101436.78;5114188;28;20207;-54
2023/03/21 01:46:48;;;;;;;17.17;15.57;;;11.30;91.10;;;13.99;63.84;101436.78;5114447;28;20233;-54
2023/03/21 01:49:39;;;;;;;16.93;15.07;;;11.30;91.20;;;13.93;64.06;101437.53;5114338;28;20196;-55
2023/03/21 01:52:12;;;;;;;19.07;17.23;;;11.30;91.20;;;13.87;64.38;101438.22;5113753;28;20278;-57
2023/03/21 01:54:56;;;;;;;18.93;17.03;;;11.30;91.20;;;13.84;64.30;101443.84;5113853;28;20231;-56
2023/03/21 01:57:31;;;;;;;18.47;16.53;;;11.30;91.20;;;13.86;64.19;101444.53;5123848;28;20191;-57
2023/03/21 02:00:15;;;;;;;16.90;15.30;;;11.30;91.30;;;13.91;64.18;101432.38;5134450;27;20176;-56
2023/03/21 02:02:54;;;;;;;19.97;17.97;;;11.30;91.30;;;13.95;64.25;101435.50;5133991;27;20187;-57
2023/03/21 02:05:41;;;;;;;20.57;18.40;;;11.30;91.50;;;13.96;64.27;101426.53;5127780;27;20191;-57
2023/03/21 02:08:08;;;;;;;17.77;15.97;;;11.30;91.40;;;13.97;63.99;101430.84;5123322;28;20201;-55
2023/03/21 02:10:36;;;;;;;22.73;19.20;;;11.30;91.40;;;14.02;64.13;101423.19;5124000;27;20191;-56
2023/03/21 02:13:08;;;;;;;19.93;17.03;;;11.30;91.40;;;14.02;64.05;101420.56;5113446;28;20219;-57
2023/03/21 02:15:39;;;;;;;22.93;18.90;;;11.30;91.30;;;14.01;64.10;101416.25;5113456;28;20191;-55
2023/03/21 02:18:21;;;;;;;20.70;18.70;;;11.30;91.30;;;13.96;64.04;101421.25;5113863;28;20188;-57
2023/03/21 02:21:14;;;;;;;25.30;22.33;;;11.40;91.40;;;13.87;64.38;101409.09;5113809;28;20183;-57
2023/03/21 02:24:38;;;;;;;22.57;18.30;;;11.30;91.40;;;13.77;65.28;101406.72;5113688;28;20222;-54
2023/03/21 02:27:14;;;;;;;22.47;18.47;;;11.30;91.40;;;13.79;64.75;101406.53;5104379;28;20203;-58
2023/03/21 02:30:37;;;;;;;21.47;18.90;;;11.30;91.40;;;13.72;65.09;101405.59;5113705;28;20191;-55
2023/03/21 02:34:14;;;;;;;25.67;20.13;;;11.30;91.60;;;13.63;65.62;101406.66;5104441;28;20235;-56
2023/03/21 02:37:18;;;;;;;24.77;21.67;;;11.30;91.70;;;13.57;65.62;101401.06;5113544;28;20242;-56
2023/03/21 02:40:11;;;;;;;27.27;21.67;;;11.20;91.70;;;13.61;65.49;101392.78;5104979;28;20207;-57
2023/03/21 02:42:54;;;;;;;24.40;21.03;;;11.20;91.70;;;13.62;65.97;101399.75;5113081;28;20201;-58
2023/03/21 02:45:34;;;;;;;24.23;21.43;;;11.20;91.80;;;13.69;65.67;101392.75;5113097;28;20610;-55
2023/03/21 02:48:08;;;;;;;25.80;21.70;;;11.20;91.90;;;13.74;65.60;101393.81;5113493;28;20675;-54
2023/03/21 02:50:47;;;;;;;25.07;20.77;;;11.20;92.00;;;13.73;65.37;101392.19;5113421;28;20214;-56
2023/03/21 02:53:21;;;;;;;24.90;22.13;;;11.20;91.80;;;13.74;65.55;101390.38;5116013;28;20269;-57
2023/03/21 02:55:51;;;;;;;23.27;19.53;;;11.20;91.90;;;13.75;65.53;101389.38;5117077;28;20260;-56
2023/03/21 02:58:22;;;;;;;24.60;21.17;;;11.20;91.90;;;13.76;65.40;101391.03;5134884;27;20206;-57
2023/03/21 03:00:54;;;;;;;31.30;23.53;;;11.20;91.90;;;13.83;65.49;101395.44;5137473;27;20731;-57
2023/03/21 03:03:22;;;;;;;31.00;23.43;;;11.20;92.00;;;13.85;65.35;101389.94;5096188;28;20270;-57
2023/03/21 03:06:06;;;;;;;26.93;22.03;;;11.30;92.00;;;13.84;65.58;101385.63;5096587;28;20180;-55
2023/03/21 03:08:51;;;;;;;24.97;20.77;;;11.20;92.00;;;13.82;65.24;101391.13;5122488;27;20183;-56
2023/03/21 03:11:33;;;;;;;27.80;22.40;;;11.30;91.90;;;13.87;65.18;101393.22;5119609;27;20187;-58
2023/03/21 03:14:23;;;;;;;23.77;21.10;;;11.30;92.00;;;13.89;65.02;101385.94;5116441;28;20249;-54
2023/03/21 03:17:22;;;;;;;23.33;20.67;;;11.30;91.90;;;13.94;64.70;101394.16;5116101;28;20303;-57
2023/03/21 03:20:13;;;;;;;31.13;23.43;;;11.30;91.90;;;13.92;64.86;101390.88;5116645;28;20183;-58
2023/03/21 03:22:56;;;;;;;27.00;22.07;;;11.30;91.90;;;13.96;64.83;101392.16;5116462;28;20201;-57
2023/03/21 03:25:34;;;;;;;31.93;23.30;;;11.30;91.80;;;13.97;64.82;101385.84;5116402;28;20655;-56
2023/03/21 03:28:13;;;;;;;25.57;22.07;;;11.40;91.90;;;13.98;64.85;101384.84;5116508;28;20195;-56
2023/03/21 03:30:43;;;;;;;29.53;21.80;;;11.30;91.80;;;14.03;64.71;101382.47;5116457;28;20253;-57
2023/03/21 03:33:36;;;;;;;26.63;20.70;;;11.30;91.80;;;14.08;64.69;101388.06;5115802;27;20735;-54
2023/03/21 03:36:08;;;;;;;27.47;22.17;;;11.40;91.90;;;14.15;64.45;101375.72;5116569;28;20180;-57
2023/03/21 03:38:40;;;;;;;28.87;22.40;;;11.40;91.90;;;14.17;64.44;101379.84;5117116;28;20207;-54
2023/03/21 03:41:17;;;;;;;24.63;20.17;;;11.40;91.90;;;14.13;64.29;101377.75;5117051;28;20192;-54
2023/03/21 03:43:49;;;;;;;28.47;22.40;;;11.40;91.70;;;14.14;64.26;101379.41;5116017;28;20632;-57
2023/03/21 03:46:25;;;;;;;29.17;22.77;;;11.50;91.70;;;14.16;64.40;101377.38;5116326;28;20662;-56
2023/03/21 03:48:59;;;;;;;27.60;21.67;;;11.50;91.90;;;14.16;64.34;101374.75;5116003;28;20176;-57
2023/03/21 03:51:35;;;;;;;24.20;21.50;;;11.40;91.70;;;14.18;64.30;101372.72;5115998;28;20192;-57
2023/03/21 03:54:09;;;;;;;31.83;22.17;;;11.50;91.80;;;14.19;64.30;101371.75;5115246;28;20223;-56
2023/03/21 03:56:39;;;;;;;26.00;20.30;;;11.50;91.80;;;14.20;64.51;101373.38;5119018;27;20191;-57
2023/03/21 03:59:06;;;;;;;24.80;20.03;;;11.50;91.80;;;14.22;64.40;101371.34;5119439;27;20196;-57
2023/03/21 04:01:34;;;;;;;27.57;23.60;;;11.50;91.80;;;14.23;64.42;101367.72;5114759;28;20184;-55
2023/03/21 04:04:01;;;;;;;27.33;21.73;;;11.50;91.90;;;14.22;64.51;101360.75;5114949;28;20207;-57
2023/03/21 04:06:38;;;;;;;29.07;22.33;;;11.50;91.80;;;14.21;64.49;101359.94;5115905;28;20198;-56
2023/03/21 04:09:07;;;;;;;33.97;23.70;;;11.50;91.80;;;14.22;64.56;101360.75;5132902;27;20198;-58
2023/03/21 04:11:48;;;;;;;27.70;22.80;;;11.50;91.80;;;14.21;64.49;101361.78;5115598;27;20195;-58
2023/03/21 04:14:15;;;;;;;30.50;24.13;;;11.50;91.80;;;14.21;64.68;101362.59;5115150;28;20220;-58
2023/03/21 04:16:42;;;;;;;27.87;22.70;;;11.50;91.90;;;14.23;64.53;101351.81;5115036;28;20676;-57
2023/03/21 04:19:09;;;;;;;29.23;21.13;;;11.50;91.80;;;14.22;64.60;101360.75;5115507;28;20190;-54
2023/03/21 04:21:36;;;;;;;28.77;22.07;;;11.50;91.80;;;14.24;64.68;101356.09;5115128;28;20541;-55
2023/03/21 04:24:06;;;;;;;30.67;24.23;;;11.50;91.80;;;14.29;64.68;101360.88;5114950;28;20257;-54
2023/03/21 04:26:34;;;;;;;28.37;21.43;;;11.50;91.90;;;14.32;64.55;101360.50;5115591;28;20563;-56
2023/03/21 04:29:04;;;;;;;29.80;21.17;;;11.60;91.90;;;14.37;64.31;101361.63;5115516;28;20195;-56
2023/03/21 04:31:33;;;;;;;27.13;22.10;;;11.60;91.90;;;14.37;64.34;101358.97;5115505;28;20188;-56
2023/03/21 04:34:03;;;;;;;34.07;22.67;;;11.60;91.90;;;14.37;64.20;101358.16;5115183;28;20211;-57
2023/03/21 04:36:37;;;;;;;26.83;23.00;;;11.60;91.80;;;14.35;64.20;101355.69;5115419;28;20199;-57
2023/03/21 04:39:11;;;;;;;35.70;24.67;;;11.60;91.80;;;14.37;64.31;101363.44;5115118;28;20190;-55
2023/03/21 04:41:39;;;;;;;29.97;22.23;;;11.60;91.80;;;14.37;64.24;101356.31;5115349;28;20177;-57
2023/03/21 04:44:08;;;;;;;35.40;23.13;;;11.60;91.70;;;14.40;64.19;101358.63;5114266;28;20321;-57
2023/03/21 04:46:35;;;;;;;35.13;23.57;;;11.60;91.80;;;14.42;64.05;101350.47;5115085;28;20674;-55
2023/03/21 04:49:03;;;;;;;31.90;24.53;;;11.70;91.80;;;14.40;64.09;101352.50;5114633;28;20188;-54
2023/03/21 04:51:30;;;;;;;31.53;23.73;;;11.70;91.70;;;14.42;64.26;101346.00;5114976;28;20195;-54
2023/03/21 04:53:57;;;;;;;34.80;24.83;;;11.70;91.70;;;14.44;64.35;101344.00;5114315;28;20598;-58
2023/03/21 04:56:30;;;;;;;29.97;23.27;;;11.70;91.70;;;14.47;63.87;101343.63;5116112;27;20187;-56
2023/03/21 04:59:00;;;;;;;39.37;25.87;;;11.70;91.70;;;14.41;63.91;101339.06;5135640;27;20175;-57
2023/03/21 05:01:31;;;;;;;32.57;25.03;;;11.70;91.50;;;14.42;64.05;101347.81;5135008;27;20648;-55
2023/03/21 05:04:00;;;;;;;37.70;22.87;;;11.70;91.50;;;14.40;64.14;101347.19;5134695;27;20294;-55
2023/03/21 05:06:27;;;;;;;38.40;26.57;;;11.70;91.50;;;14.40;64.07;101348.03;5135286;27;20191;-55
2023/03/21 05:08:58;;;;;;;34.70;24.70;;;11.70;91.50;;;14.40;63.97;101342.72;5118216;27;20191;-57
2023/03/21 05:11:27;;;;;;;35.80;23.97;;;11.70;91.40;;;14.38;64.01;101344.72;5114242;28;20632;-56
2023/03/21 05:13:54;;;;;;;39.10;25.13;;;11.70;91.40;;;14.34;64.20;101340.78;5114239;28;20212;-56
2023/03/21 05:16:25;;;;;;;35.37;23.33;;;11.70;91.40;;;14.33;64.25;101339.16;5113126;28;20202;-56
2023/03/21 05:18:54;;;;;;;36.67;25.27;;;11.70;91.30;;;14.33;64.19;101335.69;5114251;28;20586;-56
2023/03/21 05:21:22;;;;;;;36.23;23.83;;;11.70;91.40;;;14.33;64.08;101336.53;5114224;28;20711;-56
2023/03/21 05:23:57;;;;;;;39.80;24.10;;;11.70;91.40;;;14.32;64.16;101340.16;5113841;28;20753;-58
2023/03/21 05:26:24;;;;;;;32.70;24.43;;;11.70;91.40;;;14.32;64.11;101334.88;5114304;28;20182;-55
2023/03/21 05:28:51;;;;;;;35.47;23.47;;;11.70;91.40;;;14.34;64.16;101338.16;5114625;28;20219;-56
2023/03/21 05:31:19;;;;;;;33.73;21.93;;;11.70;91.40;;;14.28;64.07;101333.56;5114393;28;20192;-57
2023/03/21 05:33:47;;;;;;;35.70;23.93;;;11.70;91.40;;;14.28;64.21;101330.91;5113721;28;20208;-58
2023/03/21 05:36:15;;;;;;;34.80;22.93;;;11.70;91.40;;;14.33;64.25;101325.94;5114339;28;20260;-54
2023/03/21 05:38:44;;;;;;;36.23;24.97;;;11.70;91.40;;;14.34;63.87;101326.72;5114022;28;20638;-57
2023/03/21 05:41:12;;;;;;;27.97;23.17;;;11.70;91.30;;;14.37;63.94;101327.19;5114064;28;20231;-58
2023/03/21 05:43:39;;;;;;;29.60;22.40;;;11.70;91.40;;;14.37;63.66;101321.91;5113396;28;20696;-58
2023/03/21 05:46:07;;;;;;;37.97;22.77;;;11.70;91.30;;;14.40;63.67;101326.84;5113767;28;20183;-58
2023/03/21 05:48:34;;;;;;;32.33;21.97;;;11.70;91.30;;;14.43;63.56;101321.13;5114523;28;20536;-55
2023/03/21 05:51:03;;;;;;;34.73;21.17;;;11.80;91.40;;;14.44;63.74;101322.78;5112630;28;20303;-56
2023/03/21 05:53:31;;;;;;;28.53;21.23;;;11.80;91.30;;;14.47;63.80;101321.59;5113465;28;20708;-55
2023/03/21 05:55:58;;;;;;;29.23;22.50;;;11.80;91.30;;;14.47;63.44;101322.44;5113727;28;20227;-57
2023/03/21 05:58:25;;;;;;;29.03;23.43;;;11.80;91.20;;;14.47;63.56;101319.78;5133449;28;20244;-58
2023/03/21 06:00:52;;;;;;;31.40;23.00;;;11.80;91.20;;;14.47;63.48;101317.13;5134648;27;20198;-57
2023/03/21 06:03:19;;;;;;;38.43;22.70;;;11.80;91.10;;;14.48;63.39;101317.94;5133938;27;20235;-56
2023/03/21 06:05:46;;;;;;;35.10;21.53;;;11.80;91.10;;;14.47;63.55;101314.50;5133230;28;20274;-56
2023/03/21 06:08:13;;;;;;;34.70;24.33;;;11.80;91.10;;;14.46;63.44;101315.47;5124353;27;20283;-57
2023/03/21 06:10:41;;;;;;;32.00;21.03;;;11.80;91.10;;;14.50;63.29;101319.41;5114311;28;20557;-58
2023/03/21 06:13:08;;;;;;;35.07;21.53;;;11.80;91.10;;;14.58;63.26;101318.47;5113718;28;20208;-56
2023/03/21 06:15:35;;;;;;;27.93;20.40;;;11.90;91.10;;;14.62;63.21;101325.06;5113155;28;20676;-56
2023/03/21 06:18:03;;;;;;;32.50;22.17;;;11.90;91.10;;;14.56;63.02;101315.19;5114065;28;20191;-57
2023/03/21 06:20:30;;;;;;;35.80;22.83;;;11.90;91.00;;;14.58;63.09;101315.81;5113681;28;20195;-58
2023/03/21 06:22:57;;;;;;;34.77;22.60;;;11.90;90.90;;;14.46;63.30;101317.31;5114073;28;20211;-57
2023/03/21 06:25:24;;;;;;;29.77;21.27;;;11.90;90.90;;;14.49;63.31;101324.88;5113663;27;20180;-57
2023/03/21 06:27:52;;;;;;;28.47;20.40;;;11.90;90.90;;;14.55;63.18;101319.66;5116549;28;20198;-56
2023/03/21 06:30:20;;;;;;;28.20;20.80;;;11.90;90.90;;;14.52;63.00;101324.53;5117466;28;20199;-57
2023/03/21 06:32:47;;;;;;;31.03;21.73;;;11.90;90.80;;;14.51;63.11;101321.03;5116786;28;20192;-57
2023/03/21 06:35:14;;;;;;;28.37;20.60;;;11.90;90.80;;;14.56;63.23;101326.63;5116646;28;20734;-59
2023/03/21 06:37:42;;;;;;;31.90;21.60;;;11.90;90.80;;;14.64;62.90;101318.53;5117404;28;20195;-56
2023/03/21 06:40:10;;;;;;;33.30;20.77;;;11.90;90.80;;;14.61;62.61;101324.22;5117691;28;20648;-56
2023/03/21 06:42:37;;;;;;;31.13;22.00;;;11.90;90.70;;;14.59;62.76;101325.44;5117178;28;20559;-59
2023/03/21 06:45:07;;;;;;;25.63;20.23;;;12.00;90.70;;;14.62;62.84;101327.72;5117863;28;20188;-57
2023/03/21 06:47:34;;;;;;;26.87;20.97;;;12.00;90.70;;;14.61;62.70;101328.69;5117919;28;20233;-58
2023/03/21 06:50:01;;;;;;;28.70;19.97;;;12.00;90.70;;;14.54;63.15;101322.50;5117756;28;20577;-55
2023/03/21 06:52:29;;;;;;;29.23;19.87;;;12.00;90.60;;;14.57;63.22;101322.94;5115889;28;20207;-55
2023/03/21 06:54:56;;;;;;;28.87;20.03;;;12.00;90.70;;;14.59;62.83;101320.94;5117377;28;20579;-58
2023/03/21 06:57:23;;;;;;;26.57;19.93;;;12.00;90.70;;;14.64;62.93;101315.88;5127647;27;20238;-58
2023/03/21 06:59:50;;;;;;;30.77;20.37;;;12.00;90.60;;;14.70;62.62;101319.63;5139543;27;20244;-58
2023/03/21 07:02:18;;;;;;;27.87;20.30;;;12.10;90.60;;;14.69;62.69;101315.34;5139284;27;20670;-54
2023/03/21 07:04:45;;;;;;;27.60;19.90;;;12.10;90.70;;;14.66;62.71;101328.97;5138517;27;20199;-56
2023/03/21 07:07:12;;;;;;;28.67;19.73;;;12.10;90.60;;;14.71;62.54;101324.72;5136447;27;20643;-55
2023/03/21 07:09:39;;;;;;;31.20;21.70;;;12.10;90.60;;;14.77;62.32;101318.69;5118358;28;20188;-56
2023/03/21 07:12:07;;;;;;;29.37;20.17;;;12.10;90.60;;;14.69;62.91;101326.75;5118893;28;20564;-59
2023/03/21 07:14:34;;;;;;;25.23;19.03;;;12.10;90.60;;;14.79;62.65;101327.28;5122939;27;20755;-56
2023/03/21 07:17:00;;;;;;;25.97;18.53;;;12.20;90.50;;;14.83;62.73;101323.25;5124985;28;20195;-55
2023/03/21 07:19:29;;;;;;;27.53;19.47;;;12.20;90.60;;;14.90;62.42;101320.69;5121275;28;20248;-55
2023/03/21 07:21:56;;;;;;;30.57;20.80;;;12.30;90.90;;;14.96;62.32;101322.56;5117599;28;20191;-57
2023/03/21 07:24:23;;;;;;;25.57;18.43;;;12.30;90.50;;;15.07;61.82;101323.91;5117744;28;20272;-56
2023/03/21 07:26:50;;;;;;;26.17;19.47;;;12.30;90.50;;;15.08;62.27;101325.53;5116686;28;20187;-54
2023/03/21 07:29:20;;;;;;;28.43;19.20;;;12.30;90.40;;;15.12;61.74;101324.97;5117829;28;20632;-57
2023/03/21 07:31:47;;;;;;;27.33;17.63;;;12.40;90.40;;;15.15;61.82;101327.25;5117150;27;20295;-57
2023/03/21 07:34:15;;;;;;;24.33;17.97;;;12.40;90.40;;;15.20;61.71;101324.84;5116659;28;20687;-56
2023/03/21 07:36:44;;;;;;;23.17;18.77;;;12.50;90.30;;;15.27;61.18;101330.19;5116774;28;20188;-60
2023/03/21 07:39:11;;;;;;;23.97;18.17;;;12.50;90.30;;;15.23;61.49;101328.94;5116184;28;20289;-57
2023/03/21 07:41:38;;;;;;;21.97;17.67;;;12.50;90.10;;;15.21;61.38;101325.66;5116613;28;20195;-55
2023/03/21 07:44:05;;;;;;;22.47;18.87;;;12.50;90.00;;;15.11;61.43;101330.47;5116142;28;20216;-65
2023/03/21 07:46:47;;;;;;;20.10;17.70;;;12.50;90.00;;;15.04;61.91;101319.81;5117290;28;20266;-56
2023/03/21 07:49:20;;;;;;;22.10;16.77;;;12.50;90.10;;;15.07;62.00;101324.69;5117094;28;20190;-58
2023/03/21 07:51:49;;;;;;;22.13;16.80;;;12.50;90.10;;;15.06;62.00;101323.06;5117683;28;20195;-58
2023/03/21 07:54:18;;;;;;;20.83;16.63;;;12.50;90.10;;;15.17;61.75;101319.09;5116476;28;20257;-58
2023/03/21 07:56:45;;;;;;;25.00;17.90;;;12.60;90.10;;;15.20;61.77;101314.25;5122798;27;20221;-56
2023/03/21 07:59:11;;;;;;;18.77;16.50;;;12.60;90.10;;;15.24;61.71;101312.00;5138262;27;20532;-57
2023/03/21 08:01:39;;;;;;;21.27;16.03;;;12.60;90.10;;;15.35;61.44;101319.47;5137867;27;20191;-57
2023/03/21 08:04:07;;;;;;;18.57;16.60;;;12.60;90.10;;;15.42;60.98;101320.34;5136612;27;20207;-58
2023/03/21 08:06:34;;;;;;;16.43;13.90;;;12.60;90.10;;;15.52;61.12;101326.19;5137304;27;20306;-57
2023/03/21 08:09:03;;;;;;;19.80;17.53;;;12.70;90.10;;;15.57;60.31;101321.09;5119609;27;20250;-58
2023/03/21 08:11:30;;;;;;;21.23;18.03;;;12.70;89.80;;;15.54;60.49;101327.63;5115222;27;20200;-58
2023/03/21 08:13:58;;;;;;;17.93;15.47;;;12.80;89.60;;;15.56;60.53;101320.28;5110210;27;20230;-57
2023/03/21 08:16:26;;;;;;;21.37;17.50;;;12.80;89.50;;;15.50;60.44;101321.03;5114602;28;20207;-56
2023/03/21 08:18:54;;;;;;;17.90;15.50;;;12.80;89.40;;;15.47;60.66;101325.94;5116379;28;20283;-58
2023/03/21 08:21:21;;;;;;;22.40;16.47;;;12.80;89.30;;;15.49;60.69;101323.91;5115768;28;20676;-58
2023/03/21 08:23:48;;;;;;;21.73;17.13;;;12.80;89.50;;;15.42;60.70;101323.00;5107461;27;20235;-59
2023/03/21 08:26:18;;;;;;;19.83;17.33;;;12.80;89.50;;;15.40;61.04;101309.09;5095928;28;20188;-57
2023/03/21 08:28:45;;;;;;;21.83;17.23;;;12.80;89.60;;;15.42;61.10;101315.03;5107589;28;20210;-56
2023/03/21 08:31:13;;;;;;;21.50;17.33;;;12.80;89.70;;;15.37;61.23;101318.28;5116288;28;20271;-56
2023/03/21 08:33:41;;;;;;;22.37;16.70;;;12.80;89.90;;;15.36;61.10;101321.91;5114727;27;20319;-57
2023/03/21 08:36:09;;;;;;;20.33;17.83;;;12.80;90.00;;;15.40;61.26;101319.72;5115680;28;20204;-59
2023/03/21 08:38:36;;;;;;;18.60;16.43;;;12.70;90.00;;;15.30;61.77;101313.91;5115682;28;20191;-59
2023/03/21 08:41:04;;;;;;;22.93;18.43;;;12.70;90.10;;;15.18;62.20;101318.09;5115177;28;20199;-58
2023/03/21 08:43:32;;;;;;;19.67;17.43;;;12.70;90.20;;;15.18;62.30;101315.44;5107806;27;20302;-56
2023/03/21 08:45:59;;;;;;;20.37;15.47;;;12.70;90.30;;;15.19;62.36;101320.53;5114847;28;20254;-57
2023/03/21 08:48:26;;;;;;;18.73;15.50;;;12.70;90.30;;;15.17;62.18;101319.91;5100545;28;20192;-56
2023/03/21 08:50:55;;;;;;;18.73;16.73;;;12.70;90.30;;;15.30;62.15;101308.59;5103378;28;20184;-58
2023/03/21 08:53:22;;;;;;;21.43;17.07;;;12.70;90.40;;;15.35;61.99;101311.50;5102864;28;20640;-56
2023/03/21 08:55:49;;;;;;;18.97;15.83;;;12.70;90.30;;;15.34;61.83;101309.84;5108425;28;20216;-56
2023/03/21 08:58:16;;;;;;;17.70;15.33;;;12.70;90.30;;;15.45;61.62;101312.03;5102334;28;20237;-59
2023/03/21 09:00:45;;;;;;;17.90;15.60;;;12.80;90.30;;;15.51;61.62;101309.44;5104544;28;20195;-61
2023/03/21 09:03:12;;;;;;;18.57;16.43;;;12.80;90.30;;;15.58;61.13;101312.13;5104700;28;20318;-55
2023/03/21 09:05:39;;;;;;;19.00;16.07;;;12.80;90.20;;;15.51;61.46;101309.44;5102587;28;20268;-56
2023/03/21 09:08:07;;;;;;;17.77;15.47;;;12.80;90.10;;;15.51;61.59;101316.56;5109791;27;20193;-57
2023/03/21 09:10:33;;;;;;;16.70;13.90;;;12.90;90.20;;;15.59;61.28;101308.47;5105989;28;20306;-57
2023/03/21 09:13:00;;;;;;;16.30;14.70;;;12.90;90.10;;;15.68;61.02;101312.63;5103536;28;20215;-57
2023/03/21 09:15:28;;;;;;;17.37;15.53;;;13.00;90.10;;;15.72;61.11;101305.06;5105449;28;20200;-57
2023/03/21 09:18:11;;;;;;;14.50;13.00;;;13.00;90.10;;;15.71;61.06;101306.94;5104364;28;20514;-57
2023/03/21 09:20:39;;;;;;;16.37;14.50;;;13.00;90.00;;;15.79;61.04;101306.75;5102709;28;20199;-57
2023/03/21 09:23:06;;;;;;;16.00;13.90;;;13.10;90.00;;;15.84;60.92;101301.69;5100884;28;20678;-57
2023/03/21 09:25:33;;;;;;;15.43;13.10;;;13.10;90.00;;;15.91;60.70;101301.72;5097228;28;20641;-56
2023/03/21 09:28:03;;;;;;;13.73;12.27;;;13.10;89.80;;;16.03;60.54;101305.47;5094536;28;20228;-54
2023/03/21 09:30:32;;;;;;;14.57;13.07;;;13.20;89.90;;;16.12;60.05;101309.59;5101175;28;20637;-58
2023/03/21 09:33:05;;;;;;;13.60;12.20;;;13.20;89.60;;;16.17;59.52;101308.00;5110003;28;20298;-57
2023/03/21 09:35:32;;;;;;;13.70;12.30;;;13.30;89.30;;;16.22;59.56;101305.59;5081482;28;20217;-56
2023/03/21 09:38:00;;;;;;;15.87;11.33;;;13.30;89.00;;;16.26;58.99;101306.81;5102844;28;20602;-57
2023/03/21 09:40:55;;;;;;;12.73;11.13;;;13.30;88.80;;;16.30;58.99;101311.75;5104320;28;20187;-55
2023/03/21 09:43:46;;;;;;;13.67;9.73;;;13.30;88.70;;;16.39;59.04;101302.59;5102270;28;20706;-54
2023/03/21 09:46:26;;;;;;;14.53;12.90;;;13.40;88.70;;;16.45;58.48;101301.81;5101327;28;20180;-58
2023/03/21 09:49:13;;;;;;;12.50;11.20;;;13.40;88.20;;;16.35;58.30;101319.94;5102374;28;20195;-57
2023/03/21 09:51:45;;;;;;;12.70;10.13;;;13.50;87.30;;;16.40;58.18;101306.91;5100757;28;20197;-55
2023/03/21 09:54:21;;;;;;;13.13;10.20;;;13.50;87.00;;;16.38;58.32;101314.25;5101088;28;20244;-58
2023/03/21 09:56:53;;;;;;;13.17;10.60;;;13.50;86.80;;;16.43;58.00;101311.78;5103301;28;20196;-56
2023/03/21 09:59:29;;;;;;;14.83;11.97;;;13.50;86.90;;;16.43;57.82;101306.47;5102574;28;20205;-57
2023/03/21 10:02:00;;;;;;;13.40;10.47;;;13.50;86.70;;;16.49;58.05;101305.69;5101095;28;20200;-58
2023/03/21 10:04:30;;;;;;;11.13;9.87;;;13.50;86.90;;;16.48;58.04;101314.69;5098639;28;20261;-55
2023/03/21 10:07:01;;;;;;;10.63;8.93;;;13.60;87.00;;;16.52;57.94;101310.66;5107060;28;20183;-55
2023/03/21 10:09:31;;;;;;;11.50;9.70;;;13.60;87.30;;;16.59;58.14;101306.19;5110013;27;20207;-57
2023/03/21 10:12:07;;;;;;;16.93;11.67;;;13.60;87.60;;;16.53;58.81;101306.97;5116513;28;20196;-56
2023/03/21 10:14:39;;;;;;;12.90;9.97;;;13.70;88.00;;;16.51;58.86;101303.66;5116928;28;20211;-57
2023/03/21 10:17:30;;;;;;;11.93;10.63;;;13.70;88.00;;;16.44;59.40;101302.81;5117789;28;20215;-55
2023/03/21 10:20:13;;;;;;;12.10;10.10;;;13.70;88.30;;;16.47;59.19;101297.13;5117432;27;20211;-57